Time;durP1;ratioP1;P1;durP2;ratioP2;P2;SDS_P1;SDS_P2;PMS_P1;PMS_P2;Temp;Humidity;BMP_temperature;BMP_pressure;BME280_temperature;BME280_humidity;BME280_pressure;Samples;Min_cycle;Max_cycle;Signal;HPM_P1;HPM_P2
2021/10/10 00:01:41;;;;;;;50.30;26.13;;;11.90;99.90;;;;;;5072297;28;20189;-78
2021/10/10 00:04:07;;;;;;;40.15;25.50;;;11.90;99.90;;;;;;5071966;28;20549;-87
2021/10/10 00:06:32;;;;;;;38.78;25.92;;;11.90;99.90;;;;;;5072683;28;20217;-79
2021/10/10 00:08:58;;;;;;;43.63;26.15;;;11.80;99.90;;;;;;5072230;28;20213;-78
2021/10/10 00:11:23;;;;;;;43.13;25.40;;;11.70;99.90;;;;;;5071885;28;20162;-78
2021/10/10 00:13:50;;;;;;;44.83;26.35;;;11.70;99.90;;;;;;5072269;28;20216;-78
2021/10/10 00:16:16;;;;;;;40.65;25.33;;;11.70;99.90;;;;;;5072246;28;20162;-77
2021/10/10 00:18:42;;;;;;;47.38;26.30;;;11.70;99.90;;;;;;5072098;28;20181;-78
2021/10/10 00:21:08;;;;;;;52.53;28.90;;;11.70;99.90;;;;;;5072274;28;20163;-78
2021/10/10 00:23:33;;;;;;;43.78;26.75;;;11.70;99.90;;;;;;5072097;28;20194;-78
2021/10/10 00:25:59;;;;;;;42.47;25.38;;;11.70;99.90;;;;;;5070741;28;20615;-78
2021/10/10 00:28:24;;;;;;;39.30;25.08;;;11.60;99.90;;;;;;5072289;28;20198;-78
2021/10/10 00:30:50;;;;;;;46.42;25.73;;;11.40;99.90;;;;;;5072357;28;20182;-79
2021/10/10 00:33:16;;;;;;;36.33;23.92;;;11.40;99.90;;;;;;5072229;28;20175;-78
2021/10/10 00:35:41;;;;;;;46.30;26.58;;;11.50;99.90;;;;;;5071084;28;20684;-78
2021/10/10 00:38:08;;;;;;;43.85;25.42;;;11.60;99.90;;;;;;5072298;28;20195;-78
2021/10/10 00:40:33;;;;;;;40.17;24.52;;;11.50;99.90;;;;;;5072195;28;20173;-78
2021/10/10 00:42:59;;;;;;;40.85;25.15;;;11.50;99.90;;;;;;5072118;28;20682;-78
2021/10/10 00:45:24;;;;;;;42.65;25.60;;;11.40;99.90;;;;;;5072919;28;20218;-78
2021/10/10 00:47:50;;;;;;;43.67;25.45;;;11.40;99.90;;;;;;5075543;28;20178;-78
2021/10/10 00:50:16;;;;;;;40.33;25.23;;;11.40;99.90;;;;;;5075935;28;20174;-78
2021/10/10 00:52:44;;;;;;;42.38;25.27;;;11.30;99.90;;;;;;5075832;28;20167;-78
2021/10/10 00:55:11;;;;;;;47.95;26.42;;;11.30;99.90;;;;;;5074338;28;20534;-78
2021/10/10 00:57:41;;;;;;;42.63;25.80;;;11.20;99.90;;;;;;5075610;28;20182;-78
2021/10/10 01:00:08;;;;;;;51.58;26.48;;;11.20;99.90;;;;;;5074794;28;20591;-78
2021/10/10 01:02:35;;;;;;;41.10;25.73;;;11.20;99.90;;;;;;5075459;28;20166;-78
2021/10/10 01:05:02;;;;;;;44.88;27.13;;;11.10;99.90;;;;;;5075818;28;20255;-80
2021/10/10 01:07:27;;;;;;;53.50;28.92;;;11.20;99.90;;;;;;5075786;28;20191;-79
2021/10/10 01:09:53;;;;;;;52.30;27.73;;;11.40;99.90;;;;;;5075527;28;20243;-79
2021/10/10 01:12:19;;;;;;;50.67;29.58;;;11.40;99.90;;;;;;5075486;28;20242;-78
2021/10/10 01:14:45;;;;;;;48.92;29.42;;;11.30;99.90;;;;;;5074782;28;20185;-78
2021/10/10 01:17:10;;;;;;;51.28;29.92;;;11.30;99.90;;;;;;5074042;28;20195;-78
2021/10/10 01:19:38;;;;;;;54.45;28.95;;;11.40;99.90;;;;;;5075009;28;20174;-78
2021/10/10 01:22:04;;;;;;;55.88;28.50;;;11.30;99.90;;;;;;5075197;28;20198;-78
2021/10/10 01:24:29;;;;;;;48.65;28.13;;;11.20;99.90;;;;;;5074588;28;20237;-90
2021/10/10 01:26:56;;;;;;;42.75;28.38;;;11.30;99.90;;;;;;5075119;28;20182;-78
2021/10/10 01:29:22;;;;;;;40.97;26.90;;;11.30;99.90;;;;;;5075329;28;20232;-79
2021/10/10 01:31:48;;;;;;;56.92;27.58;;;11.20;99.90;;;;;;5075288;28;20166;-78
2021/10/10 01:34:14;;;;;;;47.33;26.67;;;11.10;99.90;;;;;;5075271;28;20173;-78
2021/10/10 01:36:41;;;;;;;54.13;26.48;;;11.20;99.90;;;;;;5075169;28;20183;-78
2021/10/10 01:39:07;;;;;;;45.90;25.08;;;11.00;99.90;;;;;;5073663;28;20535;-78
2021/10/10 01:41:32;;;;;;;44.60;26.88;;;11.10;99.90;;;;;;5074990;28;20167;-78
2021/10/10 01:43:58;;;;;;;42.63;26.80;;;11.10;99.90;;;;;;5074755;28;20210;-78
2021/10/10 01:46:24;;;;;;;44.80;26.48;;;11.00;99.90;;;;;;5074984;28;20189;-78
2021/10/10 01:48:49;;;;;;;39.30;25.92;;;10.90;99.90;;;;;;5075048;28;20207;-78
2021/10/10 01:51:16;;;;;;;51.88;27.83;;;10.90;99.90;;;;;;5074863;28;20198;-78
2021/10/10 01:53:42;;;;;;;50.45;27.40;;;11.00;99.90;;;;;;5074824;28;20178;-79
2021/10/10 01:56:08;;;;;;;48.38;25.90;;;10.90;99.90;;;;;;5075100;28;20170;-78
2021/10/10 01:58:33;;;;;;;50.28;26.77;;;10.80;99.90;;;;;;5073972;28;20187;-80
2021/10/10 02:00:59;;;;;;;47.92;26.73;;;11.00;99.90;;;;;;5074583;28;20173;-78
2021/10/10 02:03:25;;;;;;;44.80;25.85;;;11.10;99.90;;;;;;5074124;28;20167;-78
2021/10/10 02:05:52;;;;;;;49.75;27.50;;;10.90;99.90;;;;;;5074466;28;20224;-81
2021/10/10 02:08:18;;;;;;;58.42;27.02;;;10.80;99.90;;;;;;5075197;28;20186;-78
2021/10/10 02:10:44;;;;;;;42.78;26.08;;;10.70;99.90;;;;;;5074848;28;20622;-83
2021/10/10 02:13:09;;;;;;;49.45;26.50;;;10.60;99.90;;;;;;5074955;28;20621;-78
2021/10/10 02:15:39;;;;;;;48.75;26.60;;;10.50;99.90;;;;;;5074458;28;20543;-78
2021/10/10 02:18:05;;;;;;;40.30;25.23;;;10.50;99.90;;;;;;5074579;28;20214;-78
2021/10/10 02:20:31;;;;;;;38.28;24.38;;;10.50;99.90;;;;;;5074331;28;20182;-79
2021/10/10 02:22:56;;;;;;;40.40;26.02;;;10.60;99.90;;;;;;5074260;28;20166;-78
2021/10/10 02:25:22;;;;;;;47.90;26.83;;;10.80;99.90;;;;;;5074016;28;20776;-78
2021/10/10 02:27:48;;;;;;;50.05;27.83;;;10.80;99.90;;;;;;5072950;28;20670;-78
2021/10/10 02:30:14;;;;;;;44.95;26.05;;;10.50;99.90;;;;;;5074209;28;20194;-78
2021/10/10 02:32:40;;;;;;;46.08;25.88;;;10.60;99.90;;;;;;5073996;28;20204;-78
2021/10/10 02:35:06;;;;;;;46.15;25.30;;;10.60;99.90;;;;;;5074151;28;20162;-78
2021/10/10 02:37:32;;;;;;;45.80;25.67;;;10.60;99.90;;;;;;5074370;28;20324;-78
2021/10/10 02:39:58;;;;;;;49.35;25.98;;;10.70;99.90;;;;;;5074310;28;20654;-78
2021/10/10 02:42:23;;;;;;;43.10;24.73;;;10.40;99.90;;;;;;5074121;28;20219;-78
2021/10/10 02:44:49;;;;;;;42.10;24.48;;;10.30;99.90;;;;;;5073880;28;20666;-78
2021/10/10 02:47:15;;;;;;;46.33;25.92;;;10.30;99.90;;;;;;5074058;28;20205;-78
2021/10/10 02:49:41;;;;;;;40.65;25.63;;;10.40;99.90;;;;;;5074022;28;20167;-77
2021/10/10 02:52:07;;;;;;;42.28;24.95;;;10.30;99.90;;;;;;5074066;28;20174;-79
2021/10/10 02:54:32;;;;;;;40.85;25.42;;;10.20;99.90;;;;;;5074440;28;20178;-79
2021/10/10 02:56:58;;;;;;;37.97;23.75;;;10.30;99.90;;;;;;5073851;28;20187;-78
2021/10/10 02:59:24;;;;;;;50.55;27.05;;;10.50;99.90;;;;;;5074087;28;20261;-78
2021/10/10 03:01:49;;;;;;;46.67;26.70;;;10.60;99.90;;;;;;5073953;28;20162;-78
2021/10/10 03:04:15;;;;;;;49.30;26.25;;;10.50;99.90;;;;;;5073531;28;20259;-78
2021/10/10 03:06:41;;;;;;;38.33;24.77;;;10.50;99.90;;;;;;5073348;28;20201;-78
2021/10/10 03:09:06;;;;;;;46.03;25.90;;;10.50;99.90;;;;;;5072959;28;20263;-88
2021/10/10 03:11:32;;;;;;;46.58;24.35;;;10.50;99.90;;;;;;5073286;28;20695;-78
2021/10/10 03:13:57;;;;;;;52.45;26.90;;;10.40;99.90;;;;;;5073533;28;20207;-87
2021/10/10 03:16:23;;;;;;;53.22;25.55;;;10.30;99.90;;;;;;5073272;28;20174;-78
2021/10/10 03:18:49;;;;;;;52.78;26.02;;;10.20;99.90;;;;;;5072265;28;20169;-78
2021/10/10 03:21:14;;;;;;;45.25;27.98;;;10.00;99.90;;;;;;5073653;28;20175;-77
2021/10/10 03:23:40;;;;;;;48.33;27.35;;;9.90;99.90;;;;;;5072261;28;20278;-78
2021/10/10 03:26:06;;;;;;;47.92;25.98;;;10.00;99.90;;;;;;5073128;28;20162;-77
2021/10/10 03:28:32;;;;;;;36.15;25.25;;;10.10;99.90;;;;;;5072175;28;20285;-79
2021/10/10 03:30:58;;;;;;;52.58;25.13;;;10.10;99.90;;;;;;5072691;28;20580;-78
2021/10/10 03:33:24;;;;;;;41.92;25.33;;;10.00;99.90;;;;;;5072857;28;20167;-78
2021/10/10 03:35:50;;;;;;;43.40;25.38;;;10.00;99.90;;;;;;5071604;28;20167;-80
2021/10/10 03:38:16;;;;;;;50.42;25.48;;;9.90;99.90;;;;;;5073421;28;20199;-78
2021/10/10 03:40:41;;;;;;;42.47;25.75;;;9.90;99.90;;;;;;5073179;28;20179;-80
2021/10/10 03:43:07;;;;;;;46.65;25.67;;;10.00;99.90;;;;;;5072218;28;20216;-79
2021/10/10 03:45:33;;;;;;;46.83;26.33;;;10.10;99.90;;;;;;5073634;28;20202;-78
2021/10/10 03:47:58;;;;;;;40.17;24.95;;;9.90;99.90;;;;;;5072955;28;20182;-83
2021/10/10 03:50:24;;;;;;;42.13;24.88;;;10.00;99.90;;;;;;5073251;28;20661;-78
2021/10/10 03:52:50;;;;;;;44.95;25.05;;;10.00;99.90;;;;;;5072839;28;20175;-78
2021/10/10 03:57:43;;;;;;;42.50;24.60;;;10.10;99.90;;;;;;5073704;28;20190;-90
2021/10/10 04:00:12;;;;;;;43.65;25.95;;;10.20;99.90;;;;;;5071409;28;20177;-78
2021/10/10 04:02:41;;;;;;;43.95;24.13;;;9.90;99.90;;;;;;5073692;28;20170;-79
2021/10/10 04:05:52;;;;;;;39.45;24.95;;;10.00;99.90;;;;;;5073466;28;20194;-79
2021/10/10 04:07:53;;;;;;;42.95;24.25;;;10.00;99.90;;;;;;5066468;28;20202;-79
2021/10/10 04:10:19;;;;;;;49.13;25.70;;;10.10;99.90;;;;;;5073783;28;20554;-78
2021/10/10 04:12:45;;;;;;;46.25;26.58;;;9.90;99.90;;;;;;5072620;28;20218;-79
2021/10/10 04:15:12;;;;;;;39.85;25.10;;;9.60;99.90;;;;;;5074078;28;20162;-79
2021/10/10 04:17:38;;;;;;;38.67;24.42;;;9.50;99.90;;;;;;5074035;28;20178;-80
2021/10/10 04:20:05;;;;;;;43.42;25.00;;;9.60;99.90;;;;;;5075097;28;20304;-79
2021/10/10 04:22:31;;;;;;;44.50;25.52;;;9.70;99.90;;;;;;5079550;28;20163;-79
2021/10/10 04:24:57;;;;;;;46.17;25.73;;;9.80;99.90;;;;;;5079584;28;20209;-78
2021/10/10 04:27:23;;;;;;;51.38;27.20;;;9.70;99.90;;;;;;5079108;28;20190;-77
2021/10/10 04:29:48;;;;;;;47.60;26.15;;;9.60;99.90;;;;;;5079761;28;20660;-77
2021/10/10 04:32:14;;;;;;;47.00;24.67;;;9.60;99.90;;;;;;5079251;28;20529;-77
2021/10/10 04:34:40;;;;;;;49.92;26.17;;;9.40;99.90;;;;;;5079203;28;20223;-77
2021/10/10 04:37:06;;;;;;;48.80;25.27;;;9.40;99.90;;;;;;5080097;28;20189;-79
2021/10/10 04:39:32;;;;;;;42.95;23.63;;;9.60;99.90;;;;;;5078152;28;20201;-78
2021/10/10 04:41:59;;;;;;;48.30;24.73;;;9.60;99.90;;;;;;5079287;28;20608;-78
2021/10/10 04:44:25;;;;;;;41.10;24.83;;;9.50;99.90;;;;;;5079252;28;20283;-82
2021/10/10 04:46:50;;;;;;;49.28;26.02;;;9.40;99.90;;;;;;5079364;28;20182;-78
2021/10/10 04:49:16;;;;;;;37.85;22.50;;;9.20;99.90;;;;;;5079068;28;20170;-78
2021/10/10 04:51:42;;;;;;;34.40;22.17;;;9.30;99.90;;;;;;5079079;28;20163;-78
2021/10/10 04:54:08;;;;;;;33.55;22.40;;;9.40;99.90;;;;;;5079397;28;20636;-79
2021/10/10 04:56:33;;;;;;;39.58;23.10;;;9.40;99.90;;;;;;5079194;28;20591;-80
2021/10/10 04:58:59;;;;;;;37.03;22.17;;;9.50;99.90;;;;;;5078633;28;20237;-78
2021/10/10 05:01:24;;;;;;;36.53;23.35;;;9.30;99.90;;;;;;5079722;28;20166;-82
2021/10/10 05:03:50;;;;;;;40.70;23.42;;;9.20;99.90;;;;;;5079249;28;20199;-78
2021/10/10 05:06:15;;;;;;;37.40;24.30;;;9.40;99.90;;;;;;5078907;28;20664;-79
2021/10/10 05:08:41;;;;;;;34.25;22.42;;;9.30;99.90;;;;;;5077734;28;20269;-79
2021/10/10 05:11:07;;;;;;;36.47;22.75;;;9.30;99.90;;;;;;5078958;28;20224;-90
2021/10/10 05:13:36;;;;;;;35.13;22.52;;;9.30;99.90;;;;;;5078987;28;20194;-79
2021/10/10 05:16:02;;;;;;;32.55;21.55;;;9.50;99.90;;;;;;5079047;28;20150;-78
2021/10/10 05:18:28;;;;;;;28.65;20.55;;;9.40;99.90;;;;;;5078795;28;20193;-79
2021/10/10 05:20:53;;;;;;;36.65;22.60;;;9.50;99.90;;;;;;5079168;28;20292;-78
2021/10/10 05:23:19;;;;;;;32.25;22.27;;;9.60;99.90;;;;;;5079335;28;20162;-78
2021/10/10 05:25:44;;;;;;;31.48;21.73;;;9.50;99.90;;;;;;5077463;28;20178;-79
2021/10/10 05:28:10;;;;;;;28.35;19.92;;;9.30;99.90;;;;;;5078994;28;20182;-78
2021/10/10 05:30:36;;;;;;;28.80;20.90;;;9.20;99.90;;;;;;5078901;28;20240;-79
2021/10/10 05:33:01;;;;;;;28.30;20.60;;;9.20;99.90;;;;;;5075860;28;20177;-79
2021/10/10 05:35:27;;;;;;;24.67;18.77;;;9.20;99.90;;;;;;5075759;28;20163;-78
2021/10/10 05:37:52;;;;;;;31.80;20.77;;;9.20;99.90;;;;;;5075303;28;20209;-78
2021/10/10 05:40:18;;;;;;;27.73;19.95;;;9.30;99.90;;;;;;5075473;28;20175;-77
2021/10/10 05:42:44;;;;;;;24.58;18.95;;;9.40;99.90;;;;;;5075298;28;20167;-78
2021/10/10 05:45:10;;;;;;;32.13;20.00;;;9.50;99.90;;;;;;5075707;28;20206;-78
2021/10/10 05:47:36;;;;;;;31.42;19.85;;;9.40;99.90;;;;;;5075382;28;20171;-78
2021/10/10 05:50:04;;;;;;;28.80;19.02;;;9.50;99.90;;;;;;5075367;28;20189;-79
2021/10/10 05:52:29;;;;;;;30.85;19.20;;;9.50;99.90;;;;;;5075392;28;20166;-79
2021/10/10 05:54:55;;;;;;;29.80;19.30;;;9.40;99.90;;;;;;5075402;28;20283;-79
2021/10/10 05:57:25;;;;;;;28.42;19.42;;;9.20;99.90;;;;;;5074745;28;20550;-79
2021/10/10 05:59:55;;;;;;;28.90;20.08;;;9.10;99.90;;;;;;5074095;28;20262;-78
2021/10/10 06:02:21;;;;;;;30.70;21.02;;;9.00;99.90;;;;;;5075013;28;20173;-85
2021/10/10 06:04:46;;;;;;;31.90;19.05;;;9.00;99.90;;;;;;5075070;28;20210;-77
2021/10/10 06:07:13;;;;;;;33.47;20.50;;;8.90;99.90;;;;;;5074148;28;20559;-78
2021/10/10 06:09:39;;;;;;;26.77;19.90;;;8.80;99.90;;;;;;5074205;28;20652;-78
2021/10/10 06:12:04;;;;;;;28.63;19.85;;;8.80;99.90;;;;;;5075080;28;20249;-78
2021/10/10 06:14:30;;;;;;;35.63;19.45;;;8.90;99.90;;;;;;5073826;28;20170;-78
2021/10/10 06:16:56;;;;;;;29.55;18.55;;;9.20;99.90;;;;;;5074407;28;20187;-79
2021/10/10 06:19:22;;;;;;;27.00;19.52;;;9.20;99.90;;;;;;5074799;28;20216;-79
2021/10/10 06:21:47;;;;;;;28.27;18.67;;;9.30;99.90;;;;;;5074767;28;20196;-78
2021/10/10 06:24:13;;;;;;;33.15;19.75;;;9.40;99.90;;;;;;5074620;28;20225;-78
2021/10/10 06:26:39;;;;;;;34.17;20.13;;;9.30;99.90;;;;;;5074413;28;20571;-78
2021/10/10 06:29:04;;;;;;;27.30;20.17;;;9.20;99.90;;;;;;5074073;28;20171;-78
2021/10/10 06:31:30;;;;;;;27.20;19.13;;;9.10;99.90;;;;;;5074341;28;20250;-78
2021/10/10 06:33:55;;;;;;;26.95;18.67;;;9.30;99.90;;;;;;5074047;28;20170;-79
2021/10/10 06:36:21;;;;;;;25.52;18.75;;;9.20;99.90;;;;;;5073638;28;20250;-78
2021/10/10 06:38:48;;;;;;;27.77;18.55;;;9.40;99.90;;;;;;5074440;28;20166;-79
2021/10/10 06:41:14;;;;;;;28.15;19.52;;;9.50;99.90;;;;;;5072913;28;20178;-79
2021/10/10 06:43:39;;;;;;;26.40;18.55;;;9.50;99.90;;;;;;5073688;28;20186;-78
2021/10/10 06:46:05;;;;;;;24.60;17.70;;;9.50;99.90;;;;;;5074733;28;20616;-78
2021/10/10 06:48:31;;;;;;;25.42;17.30;;;9.40;99.90;;;;;;5073985;28;20205;-79
2021/10/10 06:50:56;;;;;;;21.52;16.48;;;9.20;99.90;;;;;;5074104;28;20163;-78
2021/10/10 06:53:22;;;;;;;22.85;17.35;;;9.00;99.90;;;;;;5073729;28;20673;-78
2021/10/10 06:55:48;;;;;;;23.15;17.55;;;9.20;99.90;;;;;;5074285;28;20170;-77
2021/10/10 06:58:14;;;;;;;22.10;17.13;;;9.30;99.90;;;;;;5076034;28;20662;-78
2021/10/10 07:00:39;;;;;;;26.33;17.38;;;9.50;99.90;;;;;;5073355;28;20166;-81
2021/10/10 07:03:05;;;;;;;22.17;17.27;;;9.70;99.90;;;;;;5073379;28;20212;-79
2021/10/10 07:05:31;;;;;;;22.08;17.52;;;9.90;99.90;;;;;;5073162;28;20209;-79
2021/10/10 07:07:56;;;;;;;28.83;17.77;;;10.00;99.90;;;;;;5072880;28;20178;-78
2021/10/10 07:10:22;;;;;;;27.30;18.08;;;10.00;99.90;;;;;;5072838;28;20319;-78
2021/10/10 07:12:48;;;;;;;26.40;17.58;;;10.20;99.90;;;;;;5073105;28;20159;-78
2021/10/10 07:15:14;;;;;;;29.15;18.50;;;10.40;99.90;;;;;;5072939;28;20174;-79
2021/10/10 07:17:40;;;;;;;29.58;17.88;;;10.30;99.90;;;;;;5073124;28;20178;-79
2021/10/10 07:20:43;;;;;;;29.42;18.77;;;10.10;99.90;;;;;;5073176;28;20170;-78
2021/10/10 07:23:11;;;;;;;30.90;18.67;;;10.20;99.90;;;;;;5072733;28;20182;-78
2021/10/10 07:25:37;;;;;;;26.13;19.33;;;10.30;99.90;;;;;;5073285;28;20206;-79
2021/10/10 07:28:02;;;;;;;30.15;19.02;;;10.30;99.90;;;;;;5073048;28;20231;-78
2021/10/10 07:30:28;;;;;;;30.60;18.65;;;10.40;99.90;;;;;;5073209;28;20194;-81
2021/10/10 07:32:54;;;;;;;30.80;19.33;;;10.60;99.90;;;;;;5088104;28;20169;-79
2021/10/10 07:35:19;;;;;;;34.97;21.20;;;10.70;99.90;;;;;;5093726;28;20664;-79
2021/10/10 07:37:45;;;;;;;40.78;21.33;;;10.70;99.90;;;;;;5086761;28;20186;-78
2021/10/10 07:40:11;;;;;;;34.92;19.85;;;10.70;99.90;;;;;;5072162;28;20239;-78
2021/10/10 07:42:37;;;;;;;32.53;20.13;;;10.70;99.90;;;;;;5071381;28;20519;-79
2021/10/10 07:45:12;;;;;;;28.88;19.38;;;10.60;99.90;;;;;;5072428;28;20202;-77
2021/10/10 07:50:10;;;;;;;41.95;21.08;;;11.00;99.90;;;;;;5072307;28;20182;-77
2021/10/10 07:52:37;;;;;;;33.03;21.15;;;11.10;99.90;;;;;;5072464;28;20174;-77
2021/10/10 07:55:04;;;;;;;34.53;20.17;;;11.40;99.90;;;;;;5071329;28;20162;-77
2021/10/10 07:57:30;;;;;;;37.83;21.95;;;11.50;99.90;;;;;;5072546;28;20186;-77
2021/10/10 07:59:56;;;;;;;36.45;21.40;;;11.30;99.90;;;;;;5073238;28;20162;-77
2021/10/10 08:02:22;;;;;;;38.80;21.95;;;11.30;99.90;;;;;;5071867;28;20523;-79
2021/10/10 08:04:48;;;;;;;34.60;20.83;;;11.40;99.90;;;;;;5072080;28;20289;-80
2021/10/10 08:07:13;;;;;;;42.47;22.55;;;11.60;99.90;;;;;;5072490;28;20182;-79
2021/10/10 08:09:39;;;;;;;43.35;23.42;;;11.60;99.90;;;;;;5071411;28;20210;-79
2021/10/10 08:12:05;;;;;;;40.92;23.42;;;11.80;99.90;;;;;;5071913;28;20177;-80
2021/10/10 08:14:30;;;;;;;36.13;24.25;;;12.10;99.90;;;;;;5070647;28;20202;-81
2021/10/10 08:16:56;;;;;;;40.95;24.27;;;12.10;99.90;;;;;;5072146;28;20237;-80
2021/10/10 08:19:22;;;;;;;40.38;21.77;;;12.10;99.90;;;;;;5073144;28;20166;-79
2021/10/10 08:21:49;;;;;;;43.25;23.42;;;12.00;99.90;;;;;;5073078;28;20198;-80
2021/10/10 08:24:17;;;;;;;38.17;23.02;;;12.00;99.90;;;;;;5072923;28;20201;-84
2021/10/10 08:26:42;;;;;;;36.60;23.02;;;12.00;99.90;;;;;;5072465;28;20200;-79
2021/10/10 08:29:08;;;;;;;36.10;23.08;;;12.20;99.90;;;;;;5072992;28;20247;-83
2021/10/10 08:31:34;;;;;;;41.88;23.90;;;12.30;99.90;;;;;;5072819;28;20186;-80
2021/10/10 08:34:00;;;;;;;38.85;24.13;;;12.60;99.90;;;;;;5073365;28;20202;-80
2021/10/10 08:36:25;;;;;;;43.10;24.95;;;12.80;99.90;;;;;;5072960;28;20170;-80
2021/10/10 08:38:51;;;;;;;38.38;23.48;;;13.10;99.90;;;;;;5072386;28;20253;-85
2021/10/10 08:41:29;;;;;;;38.63;24.50;;;13.40;99.90;;;;;;5072849;28;20182;-79
2021/10/10 08:43:56;;;;;;;42.17;24.58;;;13.60;99.90;;;;;;5072205;28;20209;-83
2021/10/10 08:46:24;;;;;;;45.17;27.25;;;13.80;99.90;;;;;;5072979;28;20172;-80
2021/10/10 08:48:52;;;;;;;38.55;25.83;;;13.90;99.90;;;;;;5072444;28;20162;-81
2021/10/10 08:51:19;;;;;;;38.20;24.40;;;13.80;99.90;;;;;;5074115;28;20167;-78
2021/10/10 08:53:45;;;;;;;41.05;25.83;;;13.60;99.90;;;;;;5077696;28;20180;-78
2021/10/10 08:56:11;;;;;;;39.45;23.77;;;13.60;99.90;;;;;;5075921;28;20163;-80
2021/10/10 08:58:45;;;;;;;38.70;25.13;;;13.80;99.90;;;;;;5075127;28;20634;-79
2021/10/10 09:01:26;;;;;;;32.72;22.92;;;14.00;99.90;;;;;;5074830;28;20686;-79
2021/10/10 09:03:55;;;;;;;39.33;24.80;;;14.00;99.90;;;;;;5075659;28;20190;-78
2021/10/10 09:06:21;;;;;;;42.28;24.30;;;14.20;99.90;;;;;;5080558;28;20170;-78
2021/10/10 09:08:47;;;;;;;32.33;22.05;;;14.20;99.90;;;;;;5085822;28;20615;-79
2021/10/10 09:11:13;;;;;;;33.28;22.95;;;14.20;99.90;;;;;;5085212;28;20185;-77
2021/10/10 09:13:41;;;;;;;36.20;23.88;;;14.00;99.90;;;;;;5083931;28;20242;-78
2021/10/10 09:16:08;;;;;;;34.15;23.15;;;14.10;99.90;;;;;;5077665;28;20166;-77
2021/10/10 09:18:39;;;;;;;38.78;26.00;;;14.20;99.90;;;;;;5077338;28;20209;-78
2021/10/10 09:21:20;;;;;;;50.00;28.23;;;14.40;99.90;;;;;;5077629;28;20173;-78
2021/10/10 09:23:49;;;;;;;44.58;29.65;;;14.30;99.90;;;;;;5075908;28;20218;-78
2021/10/10 09:26:17;;;;;;;40.25;27.92;;;14.50;99.90;;;;;;5074789;28;20173;-79
2021/10/10 09:28:44;;;;;;;46.40;31.60;;;14.80;99.90;;;;;;5073546;28;20159;-78
2021/10/10 09:31:10;;;;;;;57.47;30.67;;;15.00;99.90;;;;;;5074736;28;20182;-78
2021/10/10 09:33:44;;;;;;;57.10;34.03;;;15.30;99.90;;;;;;5074921;28;20660;-79
2021/10/10 09:36:19;;;;;;;51.50;32.58;;;15.60;99.90;;;;;;5075100;28;20171;-78
2021/10/10 09:39:14;;;;;;;45.45;30.60;;;15.80;99.90;;;;;;5075013;28;20194;-78
2021/10/10 09:41:45;;;;;;;50.60;33.38;;;15.90;99.90;;;;;;5074122;28;20229;-78
2021/10/10 09:46:42;;;;;;;57.33;34.03;;;16.40;99.90;;;;;;5074176;28;20193;-78
2021/10/10 09:49:25;;;;;;;55.55;33.88;;;16.40;99.90;;;;;;5074602;28;20220;-79
2021/10/10 09:51:54;;;;;;;55.10;35.05;;;16.50;99.90;;;;;;5074850;28;20177;-78
2021/10/10 09:54:21;;;;;;;53.88;33.80;;;16.60;99.90;;;;;;5074487;28;20224;-78
2021/10/10 09:57:07;;;;;;;57.33;33.67;;;16.70;99.90;;;;;;5074355;28;20254;-77
2021/10/10 09:59:34;;;;;;;59.67;33.70;;;16.40;99.90;;;;;;5074264;28;20635;-78
2021/10/10 10:02:01;;;;;;;57.85;35.25;;;15.90;99.90;;;;;;5073566;28;20163;-78
2021/10/10 10:04:27;;;;;;;66.13;34.97;;;15.60;99.90;;;;;;5073975;28;20201;-78
2021/10/10 10:06:53;;;;;;;57.05;35.97;;;15.60;99.90;;;;;;5074604;28;20186;-78
2021/10/10 10:09:19;;;;;;;62.63;35.25;;;15.60;99.90;;;;;;5074134;28;20184;-79
2021/10/10 10:11:46;;;;;;;57.00;35.90;;;15.70;99.90;;;;;;5074415;28;20291;-78
2021/10/10 10:14:17;;;;;;;62.17;36.67;;;15.70;99.90;;;;;;5073947;28;20162;-78
2021/10/10 10:16:45;;;;;;;60.53;37.17;;;15.50;99.90;;;;;;5073511;28;20178;-79
2021/10/10 10:19:22;;;;;;;63.60;36.95;;;15.70;99.90;;;;;;5073356;28;20257;-79
2021/10/10 10:21:51;;;;;;;66.40;36.25;;;15.40;99.90;;;;;;5073946;28;20179;-78
2021/10/10 10:24:18;;;;;;;61.10;36.97;;;15.20;99.90;;;;;;5074104;28;20688;-78
2021/10/10 10:26:43;;;;;;;65.50;37.33;;;15.10;99.90;;;;;;5072504;28;20229;-77
2021/10/10 10:29:25;;;;;;;61.95;35.92;;;15.10;99.90;;;;;;5073745;28;20662;-78
2021/10/10 10:31:55;;;;;;;60.42;34.90;;;15.20;99.90;;;;;;5073132;28;20248;-78
2021/10/10 10:34:23;;;;;;;53.88;34.63;;;15.40;99.90;;;;;;5073404;28;20273;-78
2021/10/10 10:36:58;;;;;;;67.13;35.17;;;15.40;99.90;;;;;;5073565;28;20650;-79
2021/10/10 10:39:47;;;;;;;57.40;33.13;;;15.50;99.90;;;;;;5073691;28;20691;-79
2021/10/10 10:42:23;;;;;;;69.35;34.63;;;15.60;99.90;;;;;;5073659;28;20170;-80
2021/10/10 10:44:50;;;;;;;51.35;31.98;;;15.80;99.90;;;;;;5072380;28;20262;-83
2021/10/10 10:47:25;;;;;;;51.58;32.22;;;15.60;99.90;;;;;;5073172;28;20654;-80
2021/10/10 10:49:50;;;;;;;55.70;32.20;;;15.70;99.90;;;;;;5074831;28;20701;-82
2021/10/10 10:52:33;;;;;;;51.33;32.25;;;15.70;99.90;;;;;;5074501;28;20251;-85
2021/10/10 10:55:15;;;;;;;73.82;34.47;;;15.70;99.90;;;;;;5074461;28;20163;-81
2021/10/10 10:57:47;;;;;;;72.70;34.30;;;15.70;99.90;;;;;;5072139;28;20186;-79
2021/10/10 11:00:14;;;;;;;64.75;34.13;;;15.50;99.90;;;;;;5073882;28;20271;-78
2021/10/10 11:02:58;;;;;;;57.42;31.63;;;15.60;99.90;;;;;;5073327;28;20166;-81
2021/10/10 11:05:52;;;;;;;56.47;31.88;;;15.60;99.90;;;;;;5074097;28;20202;-75
2021/10/10 11:08:18;;;;;;;56.08;32.75;;;15.90;99.90;;;;;;5074127;28;20194;-77
2021/10/10 11:11:17;;;;;;;56.13;32.33;;;15.90;99.90;;;;;;5073371;28;20189;-78
2021/10/10 11:13:44;;;;;;;54.95;32.33;;;15.90;99.90;;;;;;5073313;28;20249;-77
2021/10/10 11:16:14;;;;;;;56.75;34.38;;;16.00;99.90;;;;;;5073065;28;20163;-77
2021/10/10 11:18:56;;;;;;;63.22;34.83;;;16.10;99.90;;;;;;5073621;28;20189;-78
2021/10/10 11:21:22;;;;;;;56.13;33.08;;;16.00;99.90;;;;;;5071778;28;20170;-77
2021/10/10 11:23:57;;;;;;;65.45;35.10;;;15.90;99.90;;;;;;5073671;28;20665;-78
2021/10/10 11:26:25;;;;;;;63.85;35.45;;;16.00;99.90;;;;;;5073207;28;20177;-79
2021/10/10 11:28:57;;;;;;;71.50;37.35;;;16.10;99.90;;;;;;5073644;28;20163;-79
2021/10/10 11:31:31;;;;;;;84.00;40.30;;;16.20;99.90;;;;;;5072067;28;20178;-77
2021/10/10 11:34:02;;;;;;;69.32;35.15;;;16.30;99.90;;;;;;5073415;28;20648;-77
2021/10/10 11:36:35;;;;;;;61.85;34.95;;;16.30;99.90;;;;;;5072632;28;20183;-78
2021/10/10 11:39:10;;;;;;;71.47;35.13;;;16.40;99.90;;;;;;5072353;28;20288;-80
2021/10/10 11:41:41;;;;;;;57.17;31.67;;;16.20;99.90;;;;;;5072698;28;20189;-77
2021/10/10 11:44:09;;;;;;;56.70;32.08;;;15.90;99.90;;;;;;5072644;28;20266;-77
2021/10/10 11:46:44;;;;;;;56.30;32.97;;;15.90;99.90;;;;;;5070982;28;20187;-79
2021/10/10 11:55:00;;;;;;;63.55;35.58;;;16.10;99.90;;;;;;5073278;28;20649;-78
2021/10/10 11:57:27;;;;;;;60.78;31.23;;;16.00;99.90;;;;;;5072545;28;20269;-78
2021/10/10 11:59:56;;;;;;;72.18;35.55;;;16.10;99.90;;;;;;5072791;28;20175;-80
2021/10/10 12:02:22;;;;;;;68.95;34.53;;;16.00;99.90;;;;;;5073183;28;20261;-84
2021/10/10 12:05:01;;;;;;;52.83;32.85;;;16.20;99.90;;;;;;5072929;28;20209;-79
2021/10/10 12:07:30;;;;;;;57.53;34.00;;;16.20;99.90;;;;;;5073095;28;20178;-79
2021/10/10 12:09:56;;;;;;;64.35;34.47;;;16.20;99.90;;;;;;5072605;28;20174;-78
2021/10/10 12:12:21;;;;;;;58.63;34.53;;;16.30;99.90;;;;;;5072636;28;20166;-77
2021/10/10 12:14:52;;;;;;;60.80;34.65;;;16.20;99.90;;;;;;5073090;28;20173;-77
2021/10/10 12:17:38;;;;;;;60.92;34.97;;;16.20;99.90;;;;;;5070937;28;20205;-78
2021/10/10 12:20:23;;;;;;;63.78;34.83;;;16.20;99.90;;;;;;5071336;28;20228;-78
2021/10/10 12:22:52;;;;;;;56.83;33.17;;;16.20;99.90;;;;;;5072530;28;20163;-78
2021/10/10 12:25:29;;;;;;;66.20;33.63;;;16.50;99.90;;;;;;5072194;28;20201;-78
2021/10/10 12:28:11;;;;;;;60.38;34.80;;;16.60;99.90;;;;;;5072365;28;20182;-78
2021/10/10 12:30:42;;;;;;;57.95;32.63;;;16.70;99.90;;;;;;5072080;28;20199;-79
2021/10/10 12:33:26;;;;;;;62.50;33.85;;;16.80;99.90;;;;;;5071817;28;20167;-79
2021/10/10 12:36:06;;;;;;;54.38;31.67;;;16.90;99.90;;;;;;5072204;28;20201;-79
2021/10/10 12:38:42;;;;;;;54.97;31.92;;;16.60;99.90;;;;;;5072230;28;20182;-80
2021/10/10 12:41:22;;;;;;;54.63;30.48;;;16.50;99.90;;;;;;5072876;28;20637;-79
2021/10/10 12:44:11;;;;;;;57.88;33.53;;;16.40;99.90;;;;;;5075853;28;20189;-79
2021/10/10 12:46:52;;;;;;;47.22;27.25;;;16.30;99.90;;;;;;5076000;28;20190;-80